Big Run, West Virginia
Current Conditions -  °F | °C
As of 2:53 AM on Wednesday 26 Nov 2014 (Local Time) from KCKB Reporting Station
Broken Clouds Broken Clouds  
Wind Chill: 30°   Ceiling: 11000
Heat Index: 35°   Visibility: 10mi
Dew Point: 28°   Wind: 6mph
Humidity: 76%   Direction: 40°NE
Pressure: 30.1"   Gusts: NA
Location:  39.59°N, 80.58°W
Report Text: KCKB 260753Z AUTO 04005KT 10SM BKN110 02/M02 A3010 RMK AO2 SLP195 T00171022 TSNO
Loading
Personal Weather Stations






























Interactive Weather Map New forecast layout! Learn more

10-Day Weather Forecast

Advertisements
Track Severe Weather on mobile